Time;durP1;ratioP1;P1;durP2;ratioP2;P2;SDS_P1;SDS_P2;PMS_P1;PMS_P2;Temp;Humidity;BMP_temperature;BMP_pressure;BME280_temperature;BME280_humidity;BME280_pressure;Samples;Min_cycle;Max_cycle;Signal;HPM_P1;HPM_P2
2021/09/07 00:00:23;;;;;;;25.23;15.90;;;17.00;85.40;;;;;;5079051;28;20100;-87
2021/09/07 00:02:48;;;;;;;22.52;15.07;;;17.00;85.50;;;;;;5099460;28;20106;-87
2021/09/07 00:05:14;;;;;;;27.20;16.30;;;17.00;85.50;;;;;;5095612;28;20499;-87
2021/09/07 00:07:41;;;;;;;22.50;15.95;;;17.00;85.60;;;;;;5092321;28;20028;-88
2021/09/07 00:10:09;;;;;;;23.27;15.23;;;17.00;85.70;;;;;;5110049;28;20031;-87
2021/09/07 00:12:34;;;;;;;27.17;17.42;;;16.90;85.80;;;;;;5100834;28;20088;-87
2021/09/07 00:15:01;;;;;;;26.58;16.65;;;16.90;85.90;;;;;;5111344;28;20023;-87
2021/09/07 00:17:27;;;;;;;26.65;17.15;;;16.90;86.10;;;;;;5095085;28;20059;-88
2021/09/07 00:19:52;;;;;;;28.80;16.05;;;16.80;86.90;;;;;;5095691;28;20064;-88
2021/09/07 00:22:18;;;;;;;24.17;15.77;;;16.80;86.40;;;;;;5075548;28;20081;-87
2021/09/07 00:24:43;;;;;;;29.42;17.15;;;16.80;86.50;;;;;;5112557;28;20047;-88
2021/09/07 00:27:09;;;;;;;22.38;16.20;;;16.70;86.60;;;;;;5064469;28;20098;-87
2021/09/07 00:29:35;;;;;;;24.35;15.70;;;16.70;86.70;;;;;;5092184;28;20517;-87
2021/09/07 00:32:00;;;;;;;24.00;16.02;;;16.70;86.70;;;;;;5091857;28;20024;-87
2021/09/07 00:34:26;;;;;;;26.48;15.80;;;16.70;86.70;;;;;;5075374;28;20047;-87
2021/09/07 00:36:52;;;;;;;24.23;16.02;;;16.70;86.60;;;;;;5079802;28;20109;-88
2021/09/07 00:39:17;;;;;;;20.17;14.45;;;16.70;86.70;;;;;;5078749;28;20384;-87
2021/09/07 00:41:43;;;;;;;24.55;15.13;;;16.70;86.60;;;;;;5065251;28;20032;-87
2021/09/07 00:44:18;;;;;;;22.17;14.32;;;16.70;86.50;;;;;;5092041;28;20832;-87
2021/09/07 00:46:51;;;;;;;24.55;15.43;;;16.70;86.60;;;;;;5094513;28;20501;-87
2021/09/07 00:49:18;;;;;;;23.10;15.85;;;16.70;86.60;;;;;;5096105;28;20028;-88
2021/09/07 00:51:46;;;;;;;24.05;16.70;;;16.70;86.70;;;;;;5101297;28;20028;-87
2021/09/07 00:54:14;;;;;;;23.50;16.85;;;16.60;86.90;;;;;;5094518;28;20024;-88
2021/09/07 00:56:41;;;;;;;24.73;17.00;;;16.60;86.90;;;;;;5086344;28;20046;-87
2021/09/07 00:59:08;;;;;;;25.15;16.30;;;16.60;87.20;;;;;;5112614;28;20060;-88
2021/09/07 01:01:35;;;;;;;27.63;17.85;;;16.60;87.20;;;;;;5085657;28;20039;-88
2021/09/07 01:04:01;;;;;;;26.98;17.27;;;16.60;87.30;;;;;;5095608;28;20391;-88
2021/09/07 01:06:28;;;;;;;24.95;17.30;;;16.60;87.40;;;;;;5097157;28;20032;-88
2021/09/07 01:08:55;;;;;;;22.92;15.55;;;16.60;87.50;;;;;;5113828;28;20032;-88
2021/09/07 01:11:21;;;;;;;23.08;15.93;;;16.60;87.50;;;;;;5112830;28;20484;-88
2021/09/07 01:13:47;;;;;;;24.27;16.15;;;16.60;87.50;;;;;;5116619;28;20028;-88
2021/09/07 01:16:13;;;;;;;21.48;15.75;;;16.60;87.40;;;;;;5117230;28;20107;-88
2021/09/07 01:18:40;;;;;;;28.73;15.57;;;16.60;87.50;;;;;;5098874;28;20057;-88
2021/09/07 01:21:12;;;;;;;20.45;15.25;;;16.70;87.50;;;;;;5115982;28;20028;-88
2021/09/07 01:23:43;;;;;;;20.52;15.25;;;16.70;87.60;;;;;;5116843;28;20077;-88
2021/09/07 01:26:12;;;;;;;23.58;15.02;;;16.70;87.50;;;;;;5099173;28;20392;-88
2021/09/07 01:28:38;;;;;;;25.05;14.40;;;16.70;87.50;;;;;;5115741;28;20024;-87
2021/09/07 01:31:06;;;;;;;21.60;14.43;;;16.70;87.60;;;;;;5098609;28;20369;-88
2021/09/07 01:33:32;;;;;;;30.00;15.02;;;16.60;87.80;;;;;;5107738;28;20469;-88
2021/09/07 01:35:59;;;;;;;21.23;14.75;;;16.60;87.80;;;;;;5100076;28;20034;-88
2021/09/07 01:38:25;;;;;;;25.83;15.88;;;16.60;87.80;;;;;;5089572;28;20088;-88
2021/09/07 01:40:52;;;;;;;20.73;14.82;;;16.60;87.70;;;;;;5098298;28;20062;-88
2021/09/07 01:43:18;;;;;;;23.23;16.00;;;16.60;87.70;;;;;;5115333;28;20118;-88
2021/09/07 01:45:45;;;;;;;30.05;16.35;;;16.60;87.70;;;;;;5109118;28;20676;-88
2021/09/07 01:48:12;;;;;;;23.27;16.45;;;16.50;87.90;;;;;;5094920;28;20501;-88
2021/09/07 01:50:38;;;;;;;28.65;16.75;;;16.40;87.90;;;;;;5112727;28;20023;-88
2021/09/07 01:53:03;;;;;;;24.45;16.58;;;16.40;88.00;;;;;;5098549;28;20153;-88
2021/09/07 01:55:29;;;;;;;23.45;16.55;;;16.40;88.00;;;;;;5111638;28;20037;-88
2021/09/07 01:57:55;;;;;;;30.40;17.30;;;16.40;88.00;;;;;;5093553;28;20060;-87
2021/09/07 02:00:20;;;;;;;25.77;16.75;;;16.40;88.00;;;;;;5077817;28;20032;-88
2021/09/07 02:02:46;;;;;;;25.70;17.58;;;16.30;88.00;;;;;;5066030;28;20032;-87
2021/09/07 02:05:11;;;;;;;21.80;16.42;;;16.30;88.10;;;;;;5116129;28;20035;-88
2021/09/07 02:07:37;;;;;;;28.23;16.83;;;16.30;88.10;;;;;;5097897;28;20027;-88
2021/09/07 02:10:04;;;;;;;22.17;16.30;;;16.30;88.10;;;;;;5114945;28;20062;-88
2021/09/07 02:12:29;;;;;;;29.02;17.17;;;16.30;88.10;;;;;;5095108;28;20119;-88
2021/09/07 02:14:55;;;;;;;33.20;20.58;;;16.30;88.10;;;;;;5094408;28;20099;-88
2021/09/07 02:17:21;;;;;;;32.20;21.23;;;16.30;88.10;;;;;;5110932;28;20055;-88
2021/09/07 02:19:46;;;;;;;30.80;21.83;;;16.20;88.10;;;;;;5114526;28;20039;-88
2021/09/07 02:22:12;;;;;;;31.80;21.10;;;16.20;88.20;;;;;;5114789;28;20028;-88
2021/09/07 02:24:37;;;;;;;29.90;21.33;;;16.20;88.30;;;;;;5114741;28;20051;-88
2021/09/07 02:27:04;;;;;;;25.88;18.25;;;16.20;89.00;;;;;;5097767;28;20026;-88
2021/09/07 02:29:29;;;;;;;23.63;19.05;;;16.10;88.40;;;;;;5115773;28;20027;-87
2021/09/07 02:31:55;;;;;;;28.90;18.85;;;16.10;88.40;;;;;;5112086;28;20028;-88
2021/09/07 02:34:20;;;;;;;24.60;17.10;;;16.10;88.50;;;;;;5077330;28;20020;-87
2021/09/07 02:36:46;;;;;;;27.92;17.35;;;16.10;88.50;;;;;;5077877;28;20028;-88
2021/09/07 02:39:13;;;;;;;25.92;18.27;;;16.10;88.50;;;;;;5112686;28;20035;-88
2021/09/07 02:41:39;;;;;;;23.48;17.60;;;16.10;88.60;;;;;;5109205;28;20047;-88
2021/09/07 02:44:05;;;;;;;24.73;17.45;;;16.10;88.70;;;;;;5092728;28;20452;-88
2021/09/07 02:46:31;;;;;;;27.83;18.40;;;16.10;88.80;;;;;;5104764;28;20489;-88
2021/09/07 02:48:57;;;;;;;27.55;17.80;;;16.10;88.90;;;;;;5076382;28;20122;-88
2021/09/07 02:51:22;;;;;;;21.92;16.70;;;16.10;88.90;;;;;;5114003;28;20019;-88
2021/09/07 02:53:48;;;;;;;26.00;16.90;;;16.10;89.00;;;;;;5086793;28;20383;-88
2021/09/07 02:56:14;;;;;;;26.33;16.75;;;16.10;89.00;;;;;;5079976;28;20119;-88
2021/09/07 02:58:40;;;;;;;24.20;16.10;;;16.10;88.90;;;;;;5115250;28;20034;-88
2021/09/07 03:01:05;;;;;;;20.92;16.08;;;16.10;88.90;;;;;;5097083;28;20038;-88
2021/09/07 03:03:33;;;;;;;26.25;15.43;;;16.10;88.90;;;;;;5096864;28;20035;-88
2021/09/07 03:06:00;;;;;;;26.08;17.17;;;16.10;89.50;;;;;;5065164;28;20396;-88
2021/09/07 03:08:26;;;;;;;20.80;16.02;;;16.10;88.90;;;;;;5110284;28;20031;-88
2021/09/07 03:10:52;;;;;;;23.30;16.95;;;16.00;89.60;;;;;;5094616;28;20035;-88
2021/09/07 03:13:17;;;;;;;26.15;16.25;;;16.00;89.20;;;;;;5110831;28;20030;-88
2021/09/07 03:15:43;;;;;;;22.63;16.65;;;16.00;89.30;;;;;;5079754;28;20028;-88
2021/09/07 03:18:09;;;;;;;25.02;15.55;;;15.90;89.30;;;;;;5113622;28;20024;-88
2021/09/07 03:20:35;;;;;;;23.27;15.88;;;15.90;89.30;;;;;;5096678;28;20153;-87
2021/09/07 03:23:01;;;;;;;21.83;15.70;;;15.90;89.10;;;;;;5113601;28;20118;-88
2021/09/07 03:25:26;;;;;;;24.17;15.63;;;15.90;89.10;;;;;;5113502;28;20035;-88
2021/09/07 03:27:52;;;;;;;28.08;15.50;;;15.90;89.20;;;;;;5113423;28;20024;-88
2021/09/07 03:30:18;;;;;;;26.60;16.75;;;15.80;89.20;;;;;;5106690;28;20030;-88
2021/09/07 03:32:44;;;;;;;21.83;16.20;;;15.80;89.50;;;;;;5076048;28;20031;-87
2021/09/07 03:35:10;;;;;;;22.73;15.15;;;15.70;89.50;;;;;;5104798;28;20030;-87
2021/09/07 03:37:36;;;;;;;22.55;15.43;;;15.80;89.60;;;;;;5114425;28;20136;-88
2021/09/07 03:40:02;;;;;;;20.45;14.30;;;15.70;89.40;;;;;;5096420;28;20067;-88
2021/09/07 03:42:27;;;;;;;19.90;15.18;;;15.80;89.50;;;;;;5096345;28;20027;-88
2021/09/07 03:44:53;;;;;;;25.15;15.80;;;15.80;89.50;;;;;;5113188;28;20038;-88
2021/09/07 03:47:18;;;;;;;23.63;16.55;;;15.80;89.70;;;;;;5112981;28;20063;-88
2021/09/07 03:49:44;;;;;;;25.17;16.58;;;15.80;89.70;;;;;;5085014;28;20039;-87
2021/09/07 03:52:10;;;;;;;23.88;14.77;;;15.80;89.90;;;;;;5075807;28;20024;-88
2021/09/07 03:54:35;;;;;;;23.10;15.52;;;15.80;89.90;;;;;;5087256;28;20542;-88
2021/09/07 03:57:01;;;;;;;23.33;15.70;;;15.80;89.90;;;;;;5075707;28;20051;-88
2021/09/07 03:59:26;;;;;;;21.50;15.50;;;15.90;90.00;;;;;;5092629;28;20024;-88
2021/09/07 04:01:52;;;;;;;20.05;15.10;;;15.80;90.00;;;;;;5092648;28;20035;-88
2021/09/07 04:04:21;;;;;;;19.95;14.13;;;15.90;90.00;;;;;;5093734;28;20024;-88
2021/09/07 04:06:46;;;;;;;19.73;14.52;;;15.90;90.00;;;;;;5109518;28;20032;-88
2021/09/07 04:09:12;;;;;;;19.92;15.05;;;15.90;90.00;;;;;;5095073;28;20088;-88
2021/09/07 04:11:38;;;;;;;23.83;15.52;;;16.00;90.00;;;;;;5112688;28;20031;-88
2021/09/07 04:14:03;;;;;;;22.60;15.40;;;16.00;90.10;;;;;;5062342;28;20028;-88
2021/09/07 04:16:29;;;;;;;24.92;16.58;;;16.00;90.10;;;;;;5092210;28;20024;-87
2021/09/07 04:18:54;;;;;;;21.38;15.73;;;16.00;90.10;;;;;;5075330;28;20476;-87
2021/09/07 04:21:20;;;;;;;26.70;17.10;;;16.00;90.10;;;;;;5091821;28;20500;-87
2021/09/07 04:23:46;;;;;;;23.63;16.58;;;16.00;90.10;;;;;;5075520;28;20469;-88
2021/09/07 04:26:11;;;;;;;23.63;15.32;;;16.10;90.20;;;;;;5075548;28;20039;-88
2021/09/07 04:28:37;;;;;;;25.55;16.33;;;16.10;90.20;;;;;;5075473;28;20028;-88
2021/09/07 04:31:02;;;;;;;24.30;17.83;;;16.10;90.20;;;;;;5099596;28;20020;-88
2021/09/07 04:33:28;;;;;;;27.30;17.98;;;16.10;90.20;;;;;;5092269;28;20024;-88
2021/09/07 04:35:54;;;;;;;28.10;16.85;;;16.10;90.30;;;;;;5075649;28;20039;-88
2021/09/07 04:38:19;;;;;;;29.00;16.88;;;16.10;90.20;;;;;;5078323;28;20040;-88
2021/09/07 04:40:45;;;;;;;22.23;16.02;;;16.10;90.20;;;;;;5095824;28;20027;-88
2021/09/07 04:43:11;;;;;;;26.80;16.27;;;16.20;90.20;;;;;;5112474;28;20028;-88
2021/09/07 04:45:36;;;;;;;22.05;15.50;;;16.20;90.20;;;;;;5095567;28;20039;-88
2021/09/07 04:48:02;;;;;;;26.70;17.00;;;16.20;90.20;;;;;;5095258;28;20036;-88
2021/09/07 04:50:27;;;;;;;23.33;16.25;;;16.20;90.20;;;;;;5094546;28;20058;-88
2021/09/07 04:52:53;;;;;;;24.60;16.42;;;16.20;90.20;;;;;;5063228;28;20024;-88
2021/09/07 04:55:19;;;;;;;23.58;17.48;;;16.20;90.20;;;;;;5075155;28;20064;-88
2021/09/07 04:57:44;;;;;;;24.33;16.02;;;16.20;90.50;;;;;;5058190;28;20056;-88
2021/09/07 05:00:10;;;;;;;26.40;15.23;;;16.20;90.30;;;;;;5075277;28;20032;-88
2021/09/07 05:02:37;;;;;;;29.20;15.93;;;16.30;90.30;;;;;;5069902;28;20509;-88
2021/09/07 05:05:09;;;;;;;22.23;15.73;;;16.30;90.30;;;;;;5103703;28;20040;-88
2021/09/07 05:07:35;;;;;;;26.48;16.35;;;16.30;90.30;;;;;;5091557;28;20028;-87
2021/09/07 05:10:01;;;;;;;28.27;15.40;;;16.30;90.30;;;;;;5092895;28;20051;-88
2021/09/07 05:12:27;;;;;;;32.90;17.05;;;16.30;90.30;;;;;;5110604;28;20492;-87
2021/09/07 05:14:54;;;;;;;28.65;17.90;;;16.40;90.30;;;;;;5094252;28;20135;-87
2021/09/07 05:17:19;;;;;;;34.55;17.27;;;16.30;90.30;;;;;;5094717;28;20032;-87
2021/09/07 05:19:45;;;;;;;31.08;16.58;;;16.30;90.40;;;;;;5074656;28;20476;-88
2021/09/07 05:22:11;;;;;;;28.17;17.35;;;16.30;90.40;;;;;;5058216;28;20025;-88
2021/09/07 05:24:36;;;;;;;28.35;16.85;;;16.30;90.50;;;;;;5073128;28;20551;-87
2021/09/07 05:27:03;;;;;;;25.15;16.70;;;16.30;90.50;;;;;;5091680;28;20101;-87
2021/09/07 05:29:28;;;;;;;30.00;16.33;;;16.40;90.50;;;;;;5106309;28;20024;-87
2021/09/07 05:31:54;;;;;;;26.55;15.93;;;16.40;90.50;;;;;;5107624;28;20505;-87
2021/09/07 05:34:20;;;;;;;29.77;16.73;;;16.40;90.50;;;;;;5097097;28;20493;-87
2021/09/07 05:36:45;;;;;;;36.05;19.33;;;16.40;90.50;;;;;;5075313;28;20020;-87
2021/09/07 05:39:11;;;;;;;27.60;15.98;;;16.40;90.40;;;;;;5113975;28;20204;-87
2021/09/07 05:41:36;;;;;;;26.63;15.20;;;16.50;90.50;;;;;;5095311;28;20660;-87
2021/09/07 05:44:02;;;;;;;24.55;15.85;;;16.50;90.40;;;;;;5112259;28;20492;-87
2021/09/07 05:46:28;;;;;;;26.08;16.35;;;16.50;90.40;;;;;;5103180;28;20078;-87
2021/09/07 05:48:53;;;;;;;30.85;17.02;;;16.50;90.40;;;;;;5100060;28;20035;-87
2021/09/07 05:51:19;;;;;;;28.30;16.10;;;16.40;90.40;;;;;;5113139;28;20048;-88
2021/09/07 05:53:45;;;;;;;27.17;16.13;;;16.50;90.40;;;;;;5096698;28;20019;-86
2021/09/07 05:56:11;;;;;;;27.73;16.40;;;16.50;90.40;;;;;;5114855;28;20024;-89
2021/09/07 05:58:39;;;;;;;27.58;17.30;;;16.50;90.40;;;;;;5098185;28;20047;-89
2021/09/07 06:01:05;;;;;;;24.58;17.27;;;16.50;90.40;;;;;;5115391;28;20024;-89
2021/09/07 06:03:31;;;;;;;25.20;16.60;;;16.50;90.40;;;;;;5115611;28;20112;-89
2021/09/07 06:05:57;;;;;;;41.30;18.60;;;16.60;90.40;;;;;;5116446;28;20388;-89
2021/09/07 06:08:23;;;;;;;33.42;19.27;;;16.60;90.40;;;;;;5116254;28;20034;-89
2021/09/07 06:10:49;;;;;;;27.80;17.33;;;16.70;90.40;;;;;;5115196;28;20047;-88
2021/09/07 06:13:14;;;;;;;38.35;18.63;;;16.70;90.30;;;;;;5089748;28;20104;-89
2021/09/07 06:15:41;;;;;;;30.00;16.50;;;16.70;90.30;;;;;;5094686;28;20170;-89
2021/09/07 06:18:07;;;;;;;28.08;16.73;;;16.80;90.30;;;;;;5077870;28;20032;-89
2021/09/07 06:20:33;;;;;;;29.67;18.75;;;16.80;90.30;;;;;;5105722;28;20024;-88
2021/09/07 06:22:59;;;;;;;34.08;17.85;;;16.80;90.30;;;;;;5116007;28;20032;-88
2021/09/07 06:25:24;;;;;;;34.42;20.80;;;16.90;90.30;;;;;;5075378;28;20597;-88
2021/09/07 06:27:51;;;;;;;35.53;17.33;;;16.90;90.20;;;;;;5105285;28;20066;-88
2021/09/07 06:30:16;;;;;;;29.13;18.05;;;17.00;90.20;;;;;;5114526;28;20027;-87
2021/09/07 06:32:42;;;;;;;32.50;18.95;;;17.00;90.10;;;;;;5114809;28;20488;-88
2021/09/07 06:35:09;;;;;;;34.40;19.08;;;17.00;90.10;;;;;;5114287;28;20034;-87
2021/09/07 06:37:35;;;;;;;34.65;19.55;;;17.10;90.00;;;;;;5114490;28;20031;-88
2021/09/07 06:40:01;;;;;;;36.38;19.98;;;17.10;90.00;;;;;;5114666;28;20556;-90
2021/09/07 06:42:28;;;;;;;32.78;20.38;;;17.10;89.90;;;;;;5115363;28;20023;-87
2021/09/07 06:44:53;;;;;;;34.13;21.27;;;17.10;89.80;;;;;;5113974;28;20114;-88
2021/09/07 06:47:19;;;;;;;31.55;19.58;;;17.20;89.80;;;;;;5096828;28;20114;-88
2021/09/07 06:49:45;;;;;;;30.88;20.33;;;17.20;89.60;;;;;;5114035;28;20026;-88
2021/09/07 06:52:10;;;;;;;35.17;22.10;;;17.30;89.60;;;;;;5115142;28;20024;-88
2021/09/07 06:54:36;;;;;;;34.45;22.40;;;17.30;89.30;;;;;;5114990;28;20032;-89
2021/09/07 06:57:02;;;;;;;34.10;21.65;;;17.50;89.00;;;;;;5070596;28;20047;-88
2021/09/07 06:59:27;;;;;;;37.67;21.50;;;17.60;88.70;;;;;;5113927;28;20027;-88
2021/09/07 07:01:53;;;;;;;36.97;23.20;;;17.70;88.40;;;;;;5112915;28;20039;-88
2021/09/07 07:04:19;;;;;;;39.28;23.95;;;17.80;88.10;;;;;;5094444;28;20032;-88
2021/09/07 07:06:44;;;;;;;39.38;22.88;;;17.90;87.60;;;;;;5076427;28;20055;-88
2021/09/07 07:09:10;;;;;;;32.83;22.67;;;18.00;87.40;;;;;;5091917;28;20384;-89
2021/09/07 07:11:35;;;;;;;42.42;22.60;;;18.20;87.30;;;;;;5095925;28;20381;-88
2021/09/07 07:14:01;;;;;;;38.05;20.83;;;18.30;86.90;;;;;;5059571;28;20438;-88
2021/09/07 07:16:27;;;;;;;35.70;22.65;;;18.40;86.40;;;;;;5092157;28;20028;-88
2021/09/07 07:18:52;;;;;;;32.42;21.42;;;18.50;85.90;;;;;;5092295;28;20024;-89
2021/09/07 07:21:18;;;;;;;30.27;21.48;;;18.60;85.50;;;;;;5095048;28;20476;-88
2021/09/07 07:23:44;;;;;;;34.80;22.88;;;18.80;85.00;;;;;;5110985;28;20111;-88
2021/09/07 07:26:09;;;;;;;30.77;19.30;;;18.90;84.50;;;;;;5076369;28;20024;-88
2021/09/07 07:28:35;;;;;;;33.60;21.77;;;19.10;84.00;;;;;;5094129;28;20826;-88
2021/09/07 07:31:01;;;;;;;36.67;22.77;;;19.20;83.70;;;;;;5094054;28;20032;-89
2021/09/07 07:33:26;;;;;;;39.10;21.85;;;19.30;83.20;;;;;;5092899;28;20081;-89
2021/09/07 07:35:52;;;;;;;36.58;23.30;;;19.30;83.00;;;;;;5100402;28;20112;-89
2021/09/07 07:38:17;;;;;;;34.05;21.55;;;19.50;82.50;;;;;;5096383;28;20032;-89
2021/09/07 07:40:45;;;;;;;36.78;23.70;;;19.60;82.20;;;;;;5113388;28;20031;-88
2021/09/07 07:43:10;;;;;;;31.17;22.67;;;19.70;81.90;;;;;;5114460;28;20146;-89
2021/09/07 07:45:36;;;;;;;37.83;23.20;;;19.90;81.50;;;;;;5096338;28;20114;-89
2021/09/07 07:48:02;;;;;;;32.67;22.48;;;20.00;81.00;;;;;;5113212;28;20047;-88
2021/09/07 07:50:29;;;;;;;34.60;23.13;;;20.20;80.60;;;;;;5112987;28;20016;-89
2021/09/07 07:52:56;;;;;;;33.22;23.45;;;20.30;80.30;;;;;;5112954;28;20028;-89
2021/09/07 07:55:21;;;;;;;37.72;22.95;;;20.40;79.90;;;;;;5112290;28;20076;-89
2021/09/07 07:57:47;;;;;;;31.00;22.27;;;20.60;79.00;;;;;;5112815;28;20442;-90
2021/09/07 08:00:13;;;;;;;32.92;22.48;;;20.70;78.60;;;;;;5113021;28;20023;-89
2021/09/07 08:02:39;;;;;;;31.48;20.42;;;20.90;77.90;;;;;;5108816;28;20028;-90
2021/09/07 08:05:05;;;;;;;29.67;20.60;;;21.00;77.50;;;;;;5098500;28;20114;-90
2021/09/07 08:07:31;;;;;;;35.03;21.67;;;21.20;76.80;;;;;;5112931;28;20036;-89
2021/09/07 08:09:56;;;;;;;31.70;22.10;;;21.40;75.90;;;;;;5114184;28;20027;-90
2021/09/07 08:12:22;;;;;;;30.27;22.02;;;21.60;75.50;;;;;;5095955;28;20027;-89
2021/09/07 08:14:48;;;;;;;33.70;21.10;;;21.80;74.40;;;;;;5112868;28;20101;-90
2021/09/07 08:17:15;;;;;;;31.85;21.27;;;21.90;73.70;;;;;;5095767;28;20168;-90
2021/09/07 08:19:41;;;;;;;32.72;20.70;;;22.00;73.30;;;;;;5112737;28;20536;-90
2021/09/07 08:22:09;;;;;;;31.05;21.55;;;22.00;73.60;;;;;;5113768;28;20472;-91
2021/09/07 08:24:35;;;;;;;33.63;22.23;;;21.90;73.90;;;;;;5095930;28;20047;-89
2021/09/07 08:27:01;;;;;;;30.30;22.25;;;21.90;74.00;;;;;;5113633;28;20079;-89
2021/09/07 08:29:26;;;;;;;32.63;20.77;;;21.80;73.80;;;;;;5112365;28;20118;-91
2021/09/07 08:31:52;;;;;;;33.17;20.45;;;21.80;73.50;;;;;;5095478;28;20034;-90
2021/09/07 08:34:18;;;;;;;30.65;20.42;;;21.80;73.10;;;;;;5112477;28;20028;-90
2021/09/07 08:36:43;;;;;;;30.00;20.98;;;21.80;73.10;;;;;;5095592;28;20027;-90
2021/09/07 08:39:09;;;;;;;35.15;20.27;;;21.80;73.00;;;;;;5112536;28;20040;-90
2021/09/07 08:41:34;;;;;;;26.83;19.88;;;21.90;73.40;;;;;;5112607;28;20055;-90
2021/09/07 08:44:00;;;;;;;29.15;19.65;;;21.90;73.40;;;;;;5095865;28;20028;-89
2021/09/07 08:46:26;;;;;;;31.00;19.70;;;21.90;73.20;;;;;;5095611;28;20097;-90
2021/09/07 08:48:51;;;;;;;25.10;18.00;;;22.00;73.10;;;;;;5112529;28;20039;-90
2021/09/07 08:51:19;;;;;;;29.92;19.02;;;22.00;73.20;;;;;;5112942;28;20019;-90
2021/09/07 08:53:46;;;;;;;29.20;17.50;;;22.10;73.20;;;;;;5112444;28;20051;-91
2021/09/07 08:56:11;;;;;;;26.90;18.20;;;22.10;72.30;;;;;;5111898;28;20028;-91
2021/09/07 08:58:38;;;;;;;30.83;19.23;;;22.20;71.50;;;;;;5112746;28;20051;-90
2021/09/07 09:01:14;;;;;;;27.40;19.85;;;22.20;71.30;;;;;;5112321;28;20023;-89
2021/09/07 09:03:45;;;;;;;26.58;18.52;;;22.20;71.30;;;;;;5112309;28;20039;-90
2021/09/07 09:06:11;;;;;;;29.98;20.25;;;22.30;71.60;;;;;;5112382;28;20110;-91
2021/09/07 09:08:38;;;;;;;28.98;19.67;;;22.40;71.00;;;;;;5117405;28;20023;-91
2021/09/07 09:11:10;;;;;;;32.00;19.90;;;22.50;70.70;;;;;;5116269;28;20114;-91
2021/09/07 09:13:46;;;;;;;30.23;18.60;;;22.60;70.60;;;;;;5117626;28;20058;-90
2021/09/07 09:16:16;;;;;;;30.00;19.20;;;22.80;70.00;;;;;;5115942;28;20020;-90
2021/09/07 09:18:46;;;;;;;27.15;18.50;;;22.90;69.30;;;;;;5104053;28;20028;-90
2021/09/07 09:21:27;;;;;;;32.72;20.13;;;23.00;68.80;;;;;;5110740;28;20032;-89
2021/09/07 09:24:11;;;;;;;26.45;19.90;;;23.10;68.80;;;;;;5113546;28;20509;-88
2021/09/07 09:26:51;;;;;;;29.70;17.58;;;23.30;67.50;;;;;;5107432;28;20027;-90
2021/09/07 09:29:20;;;;;;;24.40;17.67;;;23.40;66.70;;;;;;5114184;28;20019;-90
2021/09/07 09:31:54;;;;;;;26.17;18.15;;;23.50;66.00;;;;;;5115981;28;20031;-91
2021/09/07 09:34:20;;;;;;;26.05;17.80;;;23.50;65.70;;;;;;5108295;28;20071;-90
2021/09/07 09:37:15;;;;;;;23.85;16.92;;;23.60;65.40;;;;;;5095608;28;20086;-91
2021/09/07 09:39:53;;;;;;;26.52;18.13;;;23.70;64.90;;;;;;5079067;28;20438;-90
2021/09/07 09:42:41;;;;;;;23.02;16.38;;;23.80;64.80;;;;;;5096898;28;20043;-90
2021/09/07 09:45:08;;;;;;;29.45;18.27;;;23.90;65.40;;;;;;5078814;28;20024;-90
2021/09/07 09:47:41;;;;;;;20.95;15.40;;;24.00;64.40;;;;;;5086615;28;20412;-91
2021/09/07 09:50:08;;;;;;;27.85;16.55;;;24.00;64.10;;;;;;5083593;28;20021;-90
2021/09/07 09:52:36;;;;;;;30.55;16.33;;;24.00;62.00;;;;;;5096535;28;20043;-90
2021/09/07 09:55:04;;;;;;;23.25;14.77;;;24.10;61.30;;;;;;5115433;28;20023;-90
2021/09/07 09:57:31;;;;;;;21.48;15.57;;;24.00;61.80;;;;;;5104389;28;20039;-90
2021/09/07 09:59:58;;;;;;;23.48;16.63;;;24.00;61.30;;;;;;5116773;28;20039;-89
2021/09/07 10:02:24;;;;;;;24.05;15.48;;;24.00;59.10;;;;;;5102522;28;20485;-90
2021/09/07 10:04:50;;;;;;;21.90;14.88;;;24.00;59.70;;;;;;5085664;28;20036;-90
2021/09/07 10:07:17;;;;;;;24.02;15.88;;;24.10;59.50;;;;;;5097101;28;20032;-90
2021/09/07 10:09:43;;;;;;;24.02;16.20;;;24.30;57.60;;;;;;5116342;28;20543;-90
2021/09/07 10:12:11;;;;;;;20.85;15.60;;;24.50;57.40;;;;;;5116190;28;20103;-90
2021/09/07 10:14:43;;;;;;;21.30;13.93;;;24.70;57.70;;;;;;5115250;28;20053;-91
2021/09/07 10:17:37;;;;;;;24.58;14.45;;;24.70;58.20;;;;;;5094728;28;20028;-91
2021/09/07 10:25:53;;;;;;;19.90;14.50;;;24.60;58.60;;;;;;5079529;28;20036;-91
2021/09/07 10:28:33;;;;;;;19.50;13.70;;;24.50;57.40;;;;;;5100401;28;20076;-90
2021/09/07 10:31:00;;;;;;;17.50;13.63;;;24.60;57.80;;;;;;5115864;28;20024;-89
2021/09/07 10:33:32;;;;;;;23.85;14.82;;;24.60;58.10;;;;;;5115197;28;20024;-88
2021/09/07 10:36:07;;;;;;;20.02;12.82;;;24.90;58.00;;;;;;5095568;28;20024;-89
2021/09/07 10:38:36;;;;;;;17.65;12.63;;;25.00;58.00;;;;;;5114229;28;20066;-88
2021/09/07 10:41:02;;;;;;;22.55;14.05;;;25.00;57.90;;;;;;5115697;28;20032;-91
2021/09/07 10:43:53;;;;;;;18.65;12.60;;;25.20;57.00;;;;;;5097685;28;20038;-90
2021/09/07 10:46:40;;;;;;;18.88;12.02;;;25.30;56.50;;;;;;5106034;28;20024;-90
2021/09/07 10:49:34;;;;;;;18.55;11.63;;;25.40;56.40;;;;;;5099422;28;20418;-89
2021/09/07 10:52:15;;;;;;;17.85;11.88;;;25.60;56.10;;;;;;5115494;28;20015;-88
2021/09/07 10:54:53;;;;;;;16.42;11.55;;;25.70;54.80;;;;;;5098706;28;20483;-89
2021/09/07 11:00:14;;;;;;;19.48;11.50;;;25.60;54.00;;;;;;5115598;28;20460;-89
2021/09/07 11:02:43;;;;;;;18.73;11.90;;;25.60;54.40;;;;;;5115091;28;20019;-89
2021/09/07 11:05:11;;;;;;;17.10;12.00;;;25.60;54.70;;;;;;5113314;28;20024;-91
2021/09/07 11:07:48;;;;;;;19.83;12.88;;;25.60;54.80;;;;;;5110560;28;20492;-89
2021/09/07 11:10:16;;;;;;;23.83;12.43;;;25.70;54.90;;;;;;5060461;28;20032;-89
2021/09/07 11:12:53;;;;;;;17.15;11.93;;;25.80;54.10;;;;;;5113372;28;20780;-88
2021/09/07 11:15:22;;;;;;;21.83;12.60;;;25.90;54.10;;;;;;5094694;28;20028;-89
2021/09/07 11:17:50;;;;;;;15.48;11.00;;;25.90;55.00;;;;;;5102610;28;20029;-90
2021/09/07 11:20:17;;;;;;;14.63;10.23;;;25.90;54.80;;;;;;5099630;28;20408;-87
2021/09/07 11:22:43;;;;;;;18.15;10.32;;;26.00;54.90;;;;;;5076187;28;20353;-88
2021/09/07 11:25:11;;;;;;;13.57;9.63;;;26.00;54.80;;;;;;5077410;28;20123;-89
2021/09/07 11:27:53;;;;;;;15.93;9.85;;;26.10;54.70;;;;;;5102869;28;20027;-89
2021/09/07 11:30:30;;;;;;;14.18;10.82;;;26.20;54.80;;;;;;5112204;28;20034;-89
2021/09/07 11:33:01;;;;;;;14.57;9.80;;;26.30;53.80;;;;;;5107721;28;20024;-89
2021/09/07 11:35:29;;;;;;;13.77;9.70;;;26.30;54.40;;;;;;5112348;28;20027;-89
2021/09/07 11:38:08;;;;;;;17.42;11.25;;;26.30;53.60;;;;;;5111281;28;20063;-90
2021/09/07 11:40:36;;;;;;;17.48;10.48;;;26.30;53.60;;;;;;5108461;28;20511;-88
2021/09/07 11:43:02;;;;;;;14.77;10.70;;;26.30;53.80;;;;;;5097610;28;20042;-90
2021/09/07 11:45:31;;;;;;;15.23;10.35;;;26.40;54.30;;;;;;5093102;28;20032;-89
2021/09/07 11:47:58;;;;;;;15.35;11.27;;;26.50;54.10;;;;;;5113348;28;20028;-90
2021/09/07 11:50:30;;;;;;;16.42;11.18;;;26.50;53.30;;;;;;5114713;28;20096;-91
2021/09/07 11:52:58;;;;;;;12.45;9.80;;;26.50;52.80;;;;;;5114425;28;20076;-87
2021/09/07 11:55:45;;;;;;;14.25;9.88;;;26.50;53.10;;;;;;5112891;28;20031;-89
2021/09/07 11:58:30;;;;;;;11.35;8.80;;;26.60;53.80;;;;;;5092349;28;20076;-88
2021/09/07 12:01:08;;;;;;;15.75;10.48;;;26.60;53.60;;;;;;5093575;28;20038;-88
2021/09/07 12:03:45;;;;;;;13.27;9.30;;;26.70;53.80;;;;;;5092419;28;20031;-88
2021/09/07 12:06:14;;;;;;;10.02;8.35;;;26.70;53.00;;;;;;5092671;28;20497;-88
2021/09/07 12:08:50;;;;;;;11.77;8.52;;;26.70;52.70;;;;;;5093708;28;20098;-88
2021/09/07 12:11:21;;;;;;;11.27;8.43;;;26.80;51.40;;;;;;5092321;28;20024;-88
2021/09/07 12:14:04;;;;;;;12.63;8.45;;;26.80;51.70;;;;;;5093687;28;20532;-88
2021/09/07 12:16:30;;;;;;;8.43;7.22;;;26.80;51.60;;;;;;5093693;28;20134;-88
2021/09/07 12:18:56;;;;;;;11.82;8.98;;;26.80;52.20;;;;;;5092272;28;20048;-88
2021/09/07 12:21:26;;;;;;;12.55;8.80;;;26.80;52.90;;;;;;5092302;28;20043;-88
2021/09/07 12:23:54;;;;;;;12.45;8.52;;;26.90;51.90;;;;;;5093408;28;20543;-88
2021/09/07 12:26:41;;;;;;;10.48;8.77;;;27.00;51.60;;;;;;5093400;28;20023;-88
2021/09/07 12:29:15;;;;;;;12.77;9.55;;;27.00;51.80;;;;;;5076358;28;20082;-88
2021/09/07 12:31:41;;;;;;;13.93;10.60;;;27.10;51.60;;;;;;5112131;28;20026;-88
2021/09/07 12:34:07;;;;;;;14.50;10.18;;;27.00;51.40;;;;;;5075274;28;20435;-88
2021/09/07 12:36:51;;;;;;;14.60;10.05;;;27.00;51.80;;;;;;5108056;28;20028;-88
2021/09/07 12:39:18;;;;;;;14.20;11.38;;;27.10;52.10;;;;;;5096027;28;20042;-89